Molokai, Hawaii
Current Conditions -  °F | °C
As of 2:54 PM on Saturday 22 Nov 2014 (Local Time) from PHMK Reporting Station
Few Clouds Few Clouds  
Wind Chill: 83°   Ceiling: Unl
Heat Index: 84°   Visibility: 10mi
Dew Point: 63°   Wind: 10mph
Humidity: 51%   Direction: 170°S
Pressure: 29.98"   Gusts: NA
Location:  21.13°N, 157.18°W
Report Text: PHMK 230054Z 17009KT 10SM FEW030 28/17 A2998 RMK AO2 SLP151 T02830172
Loading
Personal Weather Stations






























Interactive Weather Map New forecast layout! Learn more

10-Day Weather Forecast

Advertisements
Track Severe Weather on mobile